createdAt,value
2023-03-25T00:01:19.154Z,97823.24
2023-03-25T00:03:53.413Z,97816.33
2023-03-25T00:06:26.744Z,97812.87
2023-03-25T00:09:02.232Z,97810.29
2023-03-25T00:11:36.429Z,97808.56
2023-03-25T00:14:11.238Z,97804.23
2023-03-25T00:16:46.229Z,97802.49
2023-03-25T00:19:21.380Z,97800.79
2023-03-25T00:21:55.021Z,97797.31
2023-03-25T00:24:28.857Z,97793.02
2023-03-25T00:27:02.663Z,97791.27
2023-03-25T00:29:36.491Z,97785.27
2023-03-25T00:32:09.972Z,97782.66
2023-03-25T00:34:44.970Z,97783.58
2023-03-25T00:37:20.224Z,97772.34
2023-03-25T00:39:53.800Z,97778.38
2023-03-25T00:42:27.314Z,97773.20
2023-03-25T00:45:01.008Z,97756.79
2023-03-25T00:47:34.532Z,97771.45
2023-03-25T00:50:09.944Z,97764.55
2023-03-25T00:52:43.376Z,97758.50
2023-03-25T00:55:17.337Z,97746.44
2023-03-25T00:57:50.858Z,97745.55
2023-03-25T01:00:24.707Z,97742.09
2023-03-25T01:02:58.472Z,97723.10
2023-03-25T01:05:32.107Z,97733.46
2023-03-25T01:08:06.306Z,97731.73
2023-03-25T01:10:39.634Z,97721.37
2023-03-25T01:13:12.765Z,97715.34
2023-03-25T01:15:46.088Z,97721.39
2023-03-25T01:18:19.654Z,97720.53
2023-03-25T01:20:53.166Z,97724.83
2023-03-25T01:23:26.485Z,97716.19
2023-03-25T01:26:01.369Z,97724.85
2023-03-25T01:28:34.730Z,97721.37
2023-03-25T01:31:13.325Z,97733.49
2023-03-25T01:33:46.967Z,97713.60
2023-03-25T01:36:21.542Z,97706.70
2023-03-25T01:38:54.910Z,97706.69
2023-03-25T01:41:39.140Z,97698.91
2023-03-25T01:44:10.396Z,97685.09
2023-03-25T01:46:45.597Z,97687.67
2023-03-25T01:49:24.060Z,97664.35
2023-03-25T01:52:00.966Z,97671.27
2023-03-25T01:54:35.053Z,97685.97
2023-03-25T01:57:10.458Z,97669.53
2023-03-25T01:59:44.697Z,97665.20
2023-03-25T02:02:19.460Z,97646.19
2023-03-25T02:04:57.902Z,97662.61
2023-03-25T02:07:34.416Z,97653.12
2023-03-25T02:10:11.248Z,97640.16
2023-03-25T02:12:45.928Z,97626.31
2023-03-25T02:15:21.078Z,97638.43
2023-03-25T02:18:14.860Z,97647.93
2023-03-25T02:21:37.706Z,97650.51
2023-03-25T02:24:37.164Z,97658.29
2023-03-25T02:27:28.483Z,97654.85
2023-03-25T02:30:32.541Z,97641.86
2023-03-25T02:33:41.919Z,97634.95
2023-03-25T02:39:27.973Z,97624.47
2023-03-25T02:42:04.284Z,97622.75
2023-03-25T02:44:41.762Z,97612.38
2023-03-25T02:47:17.946Z,97598.55
2023-03-25T02:49:54.938Z,97592.48
2023-03-25T02:52:31.506Z,97583.80
2023-03-25T02:55:10.782Z,97584.63
2023-03-25T02:57:47.824Z,97601.06
2023-03-25T03:00:26.912Z,97580.26
2023-03-25T03:03:02.803Z,97594.02
2023-03-25T03:05:40.036Z,97581.00
2023-03-25T03:08:25.001Z,97567.13
2023-03-25T03:11:02.619Z,97571.42
2023-03-25T03:13:41.810Z,97556.67
2023-03-25T03:16:18.384Z,97555.80
2023-03-25T03:18:56.993Z,97555.73
2023-03-25T03:21:33.291Z,97551.38
2023-03-25T03:24:09.926Z,97558.24
2023-03-25T03:26:47.123Z,97539.17
2023-03-25T03:29:23.499Z,97532.27
2023-03-25T03:32:06.564Z,97525.30
2023-03-25T03:34:39.733Z,97508.84
2023-03-25T03:37:12.978Z,97516.63
2023-03-25T03:39:47.588Z,97515.70
2023-03-25T03:45:07.210Z,97493.18
2023-03-25T03:47:43.695Z,97507.98
2023-03-25T03:50:20.665Z,97492.34
2023-03-25T03:52:57.409Z,97496.62
2023-03-25T03:55:36.029Z,97493.11
2023-03-25T03:58:15.409Z,97487.88
2023-03-25T04:00:52.198Z,97488.73
2023-03-25T04:03:28.584Z,97490.42
2023-03-25T04:06:07.376Z,97494.70
2023-03-25T04:08:44.654Z,97479.05
2023-03-25T04:11:21.245Z,97477.31
2023-03-25T04:13:57.021Z,97475.61
2023-03-25T04:16:33.979Z,97471.25
2023-03-25T04:19:07.351Z,97467.72
2023-03-25T04:21:41.739Z,97458.14
2023-03-25T04:24:17.080Z,97464.20
2023-03-25T04:26:52.189Z,97441.63
2023-03-25T04:29:25.755Z,97474.48
2023-03-25T04:31:59.488Z,97460.56
2023-03-25T04:34:32.949Z,97431.94
2023-03-25T04:37:09.780Z,97431.09
2023-03-25T04:39:42.920Z,97437.14
2023-03-25T04:42:17.966Z,97429.34
2023-03-25T04:44:51.070Z,97429.28
2023-03-25T04:47:26.218Z,97410.28
2023-03-25T04:49:59.346Z,97435.23
2023-03-25T04:52:34.761Z,97426.45
2023-03-25T04:55:10.731Z,97428.12
2023-03-25T04:57:43.920Z,97415.02
2023-03-25T05:00:19.788Z,97398.45
2023-03-25T05:02:55.336Z,97389.73
2023-03-25T05:05:28.730Z,97390.47
2023-03-25T05:08:02.196Z,97391.28
2023-03-25T05:10:36.570Z,97387.71
2023-03-25T05:13:11.300Z,97379.81
2023-03-25T05:15:44.779Z,97389.25
2023-03-25T05:18:19.022Z,97403.18
2023-03-25T05:20:53.657Z,97407.48
2023-03-25T05:23:27.328Z,97415.20
2023-03-25T05:26:00.583Z,97391.77
2023-03-25T05:28:34.001Z,97417.77
2023-03-25T05:31:08.776Z,97402.02
2023-03-25T05:33:43.504Z,97398.41
2023-03-25T05:36:17.239Z,97396.58
2023-03-25T05:38:50.863Z,97420.91
2023-03-25T05:41:26.493Z,97424.36
2023-03-25T05:44:00.621Z,97387.21
2023-03-25T05:46:34.621Z,97396.88
2023-03-25T05:49:07.914Z,97384.80
2023-03-25T05:51:42.100Z,97391.67
2023-03-25T05:54:15.255Z,97388.19
2023-03-25T05:56:48.776Z,97394.23
2023-03-25T05:59:22.210Z,97385.55
2023-03-25T06:01:55.965Z,97395.70
2023-03-25T06:04:29.693Z,97379.66
2023-03-25T06:07:04.024Z,97377.46
2023-03-25T06:09:37.535Z,97383.83
2023-03-25T06:12:11.170Z,97382.83
2023-03-25T06:14:45.919Z,97378.57
2023-03-25T06:17:22.170Z,97374.31
2023-03-25T06:19:55.580Z,97351.93
2023-03-25T06:22:29.082Z,97339.20
2023-03-25T06:25:04.068Z,97343.73
2023-03-25T06:27:38.338Z,97370.02
2023-03-25T06:30:14.873Z,97380.68
2023-03-25T06:32:50.640Z,97387.83
2023-03-25T06:35:24.479Z,97365.39
2023-03-25T06:37:58.064Z,97390.66
2023-03-25T06:40:33.196Z,97395.25
2023-03-25T06:43:07.644Z,97389.41
2023-03-25T06:46:01.783Z,97393.16
2023-03-25T06:48:38.162Z,97389.19
2023-03-25T06:51:12.209Z,97392.03
2023-03-25T06:53:45.416Z,97385.38
2023-03-25T06:56:19.197Z,97367.38
2023-03-25T06:58:52.460Z,97376.19
2023-03-25T07:01:26.188Z,97368.48
2023-03-25T07:03:59.591Z,97376.25
2023-03-25T07:06:33.986Z,97372.72
2023-03-25T07:09:07.770Z,97380.44
2023-03-25T07:11:41.413Z,97377.00
2023-03-25T07:14:14.735Z,97376.14
2023-03-25T07:16:47.432Z,97377.94
2023-03-25T07:19:21.150Z,97373.68
2023-03-25T07:21:54.499Z,97373.73
2023-03-25T07:24:28.085Z,97368.55
2023-03-25T07:27:01.500Z,97359.95
2023-03-25T07:29:35.406Z,97356.50
2023-03-25T07:37:14.589Z,97357.36
2023-03-25T07:39:48.135Z,97359.05
2023-03-25T07:42:21.590Z,97367.70
2023-03-25T07:44:59.300Z,97352.06
2023-03-25T07:47:34.568Z,97361.56
2023-03-25T07:50:09.920Z,97360.73
2023-03-25T07:52:43.247Z,97357.25
2023-03-25T07:55:17.918Z,97352.88
2023-03-25T07:57:51.297Z,97352.86
2023-03-25T08:00:25.211Z,97359.80
2023-03-25T08:02:58.576Z,97371.05
2023-03-25T08:05:32.402Z,97373.66
2023-03-25T08:08:07.787Z,97386.61
2023-03-25T08:10:43.010Z,97384.01
2023-03-25T08:13:16.817Z,97382.28
2023-03-25T08:15:50.475Z,97383.12
2023-03-25T08:18:24.083Z,97385.73
2023-03-25T08:20:57.512Z,97375.34
2023-03-25T08:23:31.712Z,97383.94
2023-03-25T08:28:39.169Z,97396.84
2023-03-25T08:31:12.668Z,97414.94
2023-03-25T08:33:46.150Z,97394.17
2023-03-25T08:36:22.223Z,97399.39
2023-03-25T08:38:56.002Z,97398.54
2023-03-25T08:41:29.537Z,97402.89
2023-03-25T08:46:35.362Z,97384.61
2023-03-25T08:49:08.949Z,97388.85
2023-03-25T08:51:42.296Z,97384.48
2023-03-25T08:54:16.150Z,97378.36
2023-03-25T08:56:49.859Z,97386.98
2023-03-25T08:59:23.112Z,97382.55
2023-03-25T09:01:58.792Z,97392.03
2023-03-25T09:04:32.837Z,97398.95
2023-03-25T09:07:11.770Z,97379.77
2023-03-25T09:09:43.046Z,97383.08
2023-03-25T09:12:27.302Z,97387.19
2023-03-25T09:15:03.168Z,97383.68
2023-03-25T09:17:36.806Z,97387.95
2023-03-25T09:20:12.200Z,97371.22
2023-03-25T09:22:45.695Z,97380.56
2023-03-25T09:25:19.584Z,97380.34
2023-03-25T09:27:53.129Z,97405.41
2023-03-25T09:30:26.515Z,97402.61
2023-03-25T09:33:00.165Z,97427.88
2023-03-25T09:35:33.852Z,97408.14
2023-03-25T09:38:07.602Z,97413.34
2023-03-25T09:40:43.785Z,97419.49
2023-03-25T09:43:26.609Z,97425.58
2023-03-25T09:46:01.446Z,97429.09
2023-03-25T09:48:38.416Z,97426.64
2023-03-25T09:51:15.584Z,97438.81
2023-03-25T09:53:52.239Z,97443.13
2023-03-25T09:56:28.802Z,97420.64
2023-03-25T09:59:05.317Z,97420.49
2023-03-25T10:01:43.473Z,97423.83
2023-03-25T10:04:39.160Z,97414.88
2023-03-25T10:07:17.378Z,97418.13
2023-03-25T10:09:54.245Z,97407.61
2023-03-25T10:12:35.896Z,97404.80
2023-03-25T10:15:21.406Z,97404.73
2023-03-25T10:18:08.697Z,97418.64
2023-03-25T10:20:48.211Z,97425.58
2023-03-25T10:23:25.835Z,97427.94
2023-03-25T10:26:02.351Z,97411.09
2023-03-25T10:28:38.912Z,97405.72
2023-03-25T10:31:16.060Z,97391.65
2023-03-25T10:33:53.214Z,97410.78
2023-03-25T10:36:30.316Z,97426.55
2023-03-25T10:39:06.077Z,97415.42
2023-03-25T10:41:43.594Z,97415.42
2023-03-25T10:44:17.158Z,97428.45
2023-03-25T10:46:53.433Z,97425.85
2023-03-25T10:49:29.943Z,97413.39
2023-03-25T10:52:05.117Z,97412.88
2023-03-25T10:54:41.745Z,97417.64
2023-03-25T10:57:19.056Z,97410.61
2023-03-25T11:00:02.101Z,97437.47
2023-03-25T11:02:37.625Z,97414.95
2023-03-25T11:05:15.936Z,97417.77
2023-03-25T11:07:53.145Z,97417.81
2023-03-25T11:10:29.380Z,97416.25
2023-03-25T11:13:06.756Z,97415.41
2023-03-25T11:15:42.057Z,97418.91
2023-03-25T11:21:01.405Z,97416.93
2023-03-25T11:23:37.242Z,97417.94
2023-03-25T11:26:14.810Z,97418.81
2023-03-25T11:28:50.780Z,97434.52
2023-03-25T11:31:26.572Z,97420.87
2023-03-25T11:34:12.997Z,97419.34
2023-03-25T11:36:55.486Z,97416.69
2023-03-25T11:39:33.105Z,97419.10
2023-03-25T11:42:17.463Z,97420.70
2023-03-25T11:44:54.897Z,97434.52
2023-03-25T11:47:30.875Z,97421.62
2023-03-25T11:50:05.598Z,97432.91
2023-03-25T11:52:42.981Z,97439.94
2023-03-25T11:55:21.225Z,97439.84
2023-03-25T11:57:56.623Z,97450.33
2023-03-25T12:00:37.404Z,97431.45
2023-03-25T12:03:20.786Z,97434.95
2023-03-25T12:06:02.572Z,97427.09
2023-03-25T12:08:44.608Z,97461.03
2023-03-25T12:11:21.774Z,97441.97
2023-03-25T12:14:09.009Z,97435.06
2023-03-25T12:16:45.859Z,97435.06
2023-03-25T12:19:23.609Z,97468.01
2023-03-25T12:22:00.207Z,97445.56
2023-03-25T12:24:44.868Z,97444.50
2023-03-25T12:27:29.478Z,97434.98
2023-03-25T12:30:07.630Z,97433.30
2023-03-25T12:35:54.145Z,97425.72
2023-03-25T12:38:36.552Z,97429.22
2023-03-25T12:41:19.958Z,97433.30
2023-03-25T12:44:06.959Z,97434.19
2023-03-25T12:47:00.775Z,97440.37
2023-03-25T12:49:46.353Z,97429.02
2023-03-25T12:52:24.082Z,97428.89
2023-03-25T12:55:07.643Z,97436.75
2023-03-25T12:57:49.144Z,97434.98
2023-03-25T13:00:33.970Z,97428.77
2023-03-25T13:06:24.840Z,97423.81
2023-03-25T13:09:01.263Z,97421.47
2023-03-25T13:11:37.265Z,97429.35
2023-03-25T13:14:14.737Z,97443.20
2023-03-25T13:16:51.919Z,97430.80
2023-03-25T13:19:28.338Z,97416.77
2023-03-25T13:22:04.731Z,97422.92
2023-03-25T13:24:43.252Z,97418.86
2023-03-25T13:27:17.528Z,97428.47
2023-03-25T13:29:53.880Z,97424.34
2023-03-25T13:32:30.369Z,97431.45
2023-03-25T13:35:15.059Z,97437.68
2023-03-25T13:37:53.147Z,97422.91
2023-03-25T13:40:29.494Z,97425.60
2023-03-25T13:43:05.995Z,97433.47
2023-03-25T13:45:44.825Z,97407.30
2023-03-25T13:48:25.066Z,97413.27
2023-03-25T13:51:03.054Z,97428.89
2023-03-25T13:53:39.743Z,97426.31
2023-03-25T13:56:36.381Z,97440.29
2023-03-25T13:59:27.532Z,97440.25
2023-03-25T14:02:25.415Z,97430.66
2023-03-25T14:05:19.557Z,97442.90
2023-03-25T14:08:33.179Z,97433.30
2023-03-25T14:11:16.909Z,97439.24
2023-03-25T14:13:53.434Z,97425.09
2023-03-25T14:16:30.724Z,97435.54
2023-03-25T14:19:06.792Z,97443.29
2023-03-25T14:21:46.052Z,97437.13
2023-03-25T14:24:22.465Z,97426.65
2023-03-25T14:26:58.901Z,97428.36
2023-03-25T14:29:38.440Z,97431.16
2023-03-25T14:32:32.925Z,97434.73
2023-03-25T14:35:41.834Z,97437.34
2023-03-25T14:38:53.804Z,97438.19
2023-03-25T14:41:57.832Z,97439.20
2023-03-25T14:44:33.264Z,97448.92
2023-03-25T14:47:30.423Z,97450.02
2023-03-25T14:50:13.168Z,97455.27
2023-03-25T14:52:48.716Z,97436.20
2023-03-25T14:55:24.316Z,97448.44
2023-03-25T14:58:02.083Z,97451.09
2023-03-25T15:00:38.959Z,97446.79
2023-03-25T15:03:16.168Z,97455.55
2023-03-25T15:05:58.198Z,97446.91
2023-03-25T15:08:34.984Z,97443.54
2023-03-25T15:11:11.970Z,97456.62
2023-03-25T15:13:49.704Z,97466.20
2023-03-25T15:16:30.612Z,97465.41
2023-03-25T15:19:07.629Z,97467.20
2023-03-25T15:22:20.481Z,97468.93
2023-03-25T15:24:59.988Z,97448.98
2023-03-25T15:27:53.006Z,97464.78
2023-03-25T15:30:46.327Z,97459.64
2023-03-25T15:33:26.119Z,97464.05
2023-03-25T15:36:08.628Z,97465.84
2023-03-25T15:39:00.397Z,97492.83
2023-03-25T15:41:47.104Z,97487.61
2023-03-25T15:44:58.892Z,97491.09
2023-03-25T15:48:10.034Z,97487.68
2023-03-25T15:54:03.377Z,97492.90
2023-03-25T15:56:40.875Z,97500.98
2023-03-25T15:59:19.484Z,97503.66
2023-03-25T16:01:54.616Z,97505.38
2023-03-25T16:04:32.225Z,97488.02
2023-03-25T16:07:09.173Z,97509.81
2023-03-25T16:09:49.285Z,97497.62
2023-03-25T16:12:25.174Z,97496.78
2023-03-25T16:14:58.554Z,97504.63
2023-03-25T16:17:35.222Z,97508.15
2023-03-25T16:20:13.459Z,97513.36
2023-03-25T16:22:51.125Z,97506.48
2023-03-25T16:25:28.219Z,97514.30
2023-03-25T16:28:07.255Z,97508.28
2023-03-25T16:30:42.897Z,97510.03
2023-03-25T16:33:20.564Z,97515.28
2023-03-25T16:35:57.123Z,97510.94
2023-03-25T16:38:31.764Z,97517.91
2023-03-25T16:41:07.585Z,97529.23
2023-03-25T16:43:41.456Z,97526.63
2023-03-25T16:46:16.442Z,97536.20
2023-03-25T16:48:54.384Z,97547.48
2023-03-25T16:51:34.412Z,97539.69
2023-03-25T16:54:13.790Z,97557.11
2023-03-25T16:56:48.424Z,97542.36
2023-03-25T16:59:25.179Z,97556.20
2023-03-25T17:02:01.719Z,97562.31
2023-03-25T17:04:42.194Z,97556.23
2023-03-25T17:07:20.020Z,97560.59
2023-03-25T17:09:52.857Z,97570.98
2023-03-25T17:12:35.420Z,97563.90
2023-03-25T17:15:17.601Z,97570.95
2023-03-25T17:17:56.721Z,97573.61
2023-03-25T17:20:34.732Z,97571.92
2023-03-25T17:23:10.964Z,97575.39
2023-03-25T17:25:54.981Z,97585.78
2023-03-25T17:28:35.381Z,97582.30
2023-03-25T17:31:26.033Z,97588.37
2023-03-25T17:36:47.802Z,97592.56
2023-03-25T17:39:23.466Z,97595.38
2023-03-25T17:42:01.730Z,97585.70
2023-03-25T17:44:37.477Z,97585.77
2023-03-25T17:47:14.724Z,97596.18
2023-03-25T17:49:49.169Z,97612.69
2023-03-25T17:52:22.610Z,97594.48
2023-03-25T17:54:55.871Z,97603.20
2023-03-25T17:57:38.615Z,97601.41
2023-03-25T18:00:19.921Z,97598.84
2023-03-25T18:03:03.360Z,97606.63
2023-03-25T18:05:37.281Z,97613.63
2023-03-25T18:08:14.237Z,97611.94
2023-03-25T18:10:47.844Z,97611.15
2023-03-25T18:13:23.928Z,97614.58
2023-03-25T18:15:58.878Z,97608.46
2023-03-25T18:18:32.668Z,97623.23
2023-03-25T18:21:15.709Z,97620.66
2023-03-25T18:23:49.486Z,97620.66
2023-03-25T18:26:23.173Z,97619.78
2023-03-25T18:28:56.580Z,97624.99
2023-03-25T18:31:30.573Z,97618.08
2023-03-25T18:34:04.576Z,97623.34
2023-03-25T18:36:38.397Z,97615.53
2023-03-25T18:39:16.852Z,97635.52
2023-03-25T18:41:50.707Z,97626.00
2023-03-25T18:44:26.119Z,97625.17
2023-03-25T18:46:59.451Z,97622.59
2023-03-25T18:49:33.092Z,97640.02
2023-03-25T18:52:07.123Z,97633.95
2023-03-25T18:54:41.380Z,97627.92
2023-03-25T18:57:15.120Z,97634.88
2023-03-25T18:59:48.458Z,97633.19
2023-03-25T19:02:21.929Z,97631.50
2023-03-25T19:05:00.959Z,97645.39
2023-03-25T19:07:32.347Z,97628.91
2023-03-25T19:10:06.190Z,97632.36
2023-03-25T19:12:39.760Z,97640.21
2023-03-25T19:15:15.397Z,97636.75
2023-03-25T19:17:49.832Z,97638.53
2023-03-25T19:20:25.380Z,97632.47
2023-03-25T19:22:59.339Z,97627.34
2023-03-25T19:25:32.985Z,97632.53
2023-03-25T19:28:06.930Z,97635.18
2023-03-25T19:30:40.975Z,97644.76
2023-03-25T19:33:15.556Z,97643.95
2023-03-25T19:35:54.436Z,97640.49
2023-03-25T19:38:28.840Z,97638.77
2023-03-25T19:41:08.485Z,97638.77
2023-03-25T19:43:42.363Z,97641.39
2023-03-25T19:46:16.047Z,97650.06
2023-03-25T19:48:49.464Z,97642.33
2023-03-25T19:51:22.880Z,97637.99
2023-03-25T19:53:57.805Z,97650.14
2023-03-25T19:56:31.595Z,97650.14
2023-03-25T19:59:05.269Z,97655.34
2023-03-25T20:01:38.838Z,97653.63
2023-03-25T20:04:14.958Z,97653.63
2023-03-25T20:06:48.793Z,97655.33
2023-03-25T20:09:41.901Z,97650.14
2023-03-25T20:12:16.842Z,97651.89
2023-03-25T20:14:50.987Z,97650.16
2023-03-25T20:17:24.641Z,97647.56
2023-03-25T20:19:58.373Z,97650.19
2023-03-25T20:22:33.025Z,97661.46
2023-03-25T20:25:07.931Z,97655.41
2023-03-25T20:27:42.102Z,97654.52
2023-03-25T20:30:18.848Z,97661.50
2023-03-25T20:32:52.580Z,97662.39
2023-03-25T20:35:49.835Z,97656.35
2023-03-25T20:38:23.686Z,97655.50
2023-03-25T20:40:57.562Z,97658.09
2023-03-25T20:43:31.432Z,97660.72
2023-03-25T20:46:05.507Z,97663.31
2023-03-25T20:48:38.996Z,97659.88
2023-03-25T20:51:12.912Z,97668.58
2023-03-25T20:53:46.528Z,97664.27
2023-03-25T20:56:19.879Z,97672.05
2023-03-25T20:58:54.097Z,97667.74
2023-03-25T21:01:28.040Z,97668.63
2023-03-25T21:04:02.442Z,97670.40
2023-03-25T21:06:35.915Z,97664.34
2023-03-25T21:09:10.760Z,97659.14
2023-03-25T21:11:44.278Z,97662.63
2023-03-25T21:14:19.160Z,97666.94
2023-03-25T21:16:54.478Z,97666.09
2023-03-25T21:19:28.293Z,97666.06
2023-03-25T21:22:01.939Z,97666.11
2023-03-25T21:24:35.992Z,97669.55
2023-03-25T21:27:09.381Z,97672.17
2023-03-25T21:29:42.513Z,97670.44
2023-03-25T21:32:16.011Z,97668.71
2023-03-25T21:34:49.720Z,97666.98
2023-03-25T21:37:23.248Z,97669.59
2023-03-25T21:39:58.313Z,97664.42
2023-03-25T21:42:32.481Z,97663.59
2023-03-25T21:45:08.082Z,97666.19
2023-03-25T21:47:41.874Z,97670.52
2023-03-25T21:50:16.634Z,97678.32
2023-03-25T21:52:50.345Z,97674.86
2023-03-25T21:55:24.167Z,97672.28
2023-03-25T21:57:59.818Z,97672.30
2023-03-25T22:00:33.532Z,97677.49
2023-03-25T22:03:08.964Z,97674.93
2023-03-25T22:05:42.734Z,97675.78
2023-03-25T22:08:17.092Z,97677.53
2023-03-25T22:10:50.796Z,97676.64
2023-03-25T22:13:24.488Z,97681.84
2023-03-25T22:15:57.833Z,97677.53
2023-03-25T22:18:32.710Z,97686.20
2023-03-25T22:21:12.534Z,97684.50
2023-03-25T22:23:47.010Z,97689.69
2023-03-25T22:26:21.288Z,97689.69
2023-03-25T22:28:58.802Z,97694.89
2023-03-25T22:31:34.000Z,97694.01
2023-03-25T22:34:11.779Z,97683.63
2023-03-25T22:36:48.744Z,97680.16
2023-03-25T22:39:25.028Z,97686.25
2023-03-25T22:41:58.686Z,97683.66
2023-03-25T22:44:32.197Z,97681.05
2023-03-25T22:47:06.081Z,97682.80
2023-03-25T22:49:39.721Z,97684.53
2023-03-25T22:52:13.118Z,97684.53
2023-03-25T22:54:46.958Z,97684.53
2023-03-25T22:57:21.494Z,97678.45
2023-03-25T22:59:55.350Z,97681.05
2023-03-25T23:02:29.350Z,97679.34
2023-03-25T23:05:03.331Z,97671.54
2023-03-25T23:07:37.141Z,97673.25
2023-03-25T23:10:13.298Z,97675.00
2023-03-25T23:12:47.122Z,97671.55
2023-03-25T23:15:20.692Z,97673.27
2023-03-25T23:17:53.913Z,97673.27
2023-03-25T23:20:28.094Z,97673.27
2023-03-25T23:23:02.873Z,97669.83
2023-03-25T23:25:36.353Z,97664.62
2023-03-25T23:28:10.404Z,97665.48
2023-03-25T23:30:46.575Z,97658.56
2023-03-25T23:33:20.530Z,97659.41
2023-03-25T23:35:54.214Z,97655.08
2023-03-25T23:38:27.796Z,97653.35
2023-03-25T23:41:06.342Z,97654.22
2023-03-25T23:43:41.371Z,97655.95
2023-03-25T23:46:17.131Z,97648.17
2023-03-25T23:48:52.757Z,97658.58
2023-03-25T23:51:27.218Z,97652.55
2023-03-25T23:54:00.665Z,97649.95
2023-03-25T23:56:34.597Z,97643.02
2023-03-25T23:59:08.241Z,97646.45
